createdAt,value
2023-04-13T00:01:11.929Z,6.50
2023-04-13T00:03:39.394Z,6.40
2023-04-13T00:06:11.450Z,6.40
2023-04-13T00:08:38.637Z,6.40
2023-04-13T00:11:07.987Z,6.40
2023-04-13T00:13:41.757Z,6.30
2023-04-13T00:16:10.325Z,6.30
2023-04-13T00:18:37.494Z,6.30
2023-04-13T00:21:04.432Z,6.20
2023-04-13T00:23:31.943Z,6.20
2023-04-13T00:26:01.370Z,6.20
2023-04-13T00:28:29.584Z,6.20
2023-04-13T00:30:56.295Z,6.20
2023-04-13T00:33:23.807Z,6.30
2023-04-13T00:35:51.010Z,6.30
2023-04-13T00:38:18.176Z,6.30
2023-04-13T00:40:44.994Z,6.30
2023-04-13T00:43:14.972Z,6.30
2023-04-13T00:45:42.153Z,6.30
2023-04-13T00:48:12.117Z,6.30
2023-04-13T00:50:39.932Z,6.20
2023-04-13T00:53:10.696Z,6.20
2023-04-13T00:55:39.437Z,6.30
2023-04-13T00:58:06.544Z,6.20
2023-04-13T01:00:33.729Z,6.20
2023-04-13T01:05:56.879Z,6.20
2023-04-13T01:08:41.980Z,6.10
2023-04-13T01:11:19.902Z,6.00
2023-04-13T01:13:56.524Z,6.00
2023-04-13T01:16:33.039Z,6.00
2023-04-13T01:19:00.868Z,6.00
2023-04-13T01:21:30.356Z,6.00
2023-04-13T01:23:57.550Z,5.90
2023-04-13T01:29:22.319Z,5.80
2023-04-13T01:32:01.280Z,5.80
2023-04-13T01:34:28.984Z,5.80
2023-04-13T01:36:56.838Z,5.80
2023-04-13T01:39:25.980Z,5.80
2023-04-13T01:41:52.579Z,5.70
2023-04-13T01:44:19.773Z,5.70
2023-04-13T01:46:52.874Z,5.70
2023-04-13T01:49:20.981Z,5.70
2023-04-13T01:51:50.701Z,5.70
2023-04-13T01:54:28.771Z,5.60
2023-04-13T01:56:59.999Z,5.60
2023-04-13T01:59:26.850Z,5.60
2023-04-13T02:01:54.603Z,5.60
2023-04-13T02:04:21.489Z,5.60
2023-04-13T02:06:48.705Z,5.60
2023-04-13T02:09:15.803Z,5.60
2023-04-13T02:11:44.236Z,5.60
2023-04-13T02:14:10.919Z,5.60
2023-04-13T02:16:39.022Z,5.60
2023-04-13T02:19:05.773Z,5.60
2023-04-13T02:21:32.808Z,5.60
2023-04-13T02:23:59.583Z,5.60
2023-04-13T02:26:27.435Z,5.60
2023-04-13T02:28:54.490Z,5.60
2023-04-13T02:31:23.225Z,5.60
2023-04-13T02:33:51.897Z,5.50
2023-04-13T02:36:19.453Z,5.50
2023-04-13T02:38:46.534Z,5.50
2023-04-13T02:41:13.215Z,5.50
2023-04-13T02:43:40.391Z,5.50
2023-04-13T02:46:07.748Z,5.50
2023-04-13T02:48:34.539Z,5.60
2023-04-13T02:51:01.656Z,5.50
2023-04-13T02:53:28.801Z,5.50
2023-04-13T02:55:56.026Z,5.50
2023-04-13T03:01:10.734Z,5.50
2023-04-13T03:03:38.061Z,5.50
2023-04-13T03:06:04.950Z,5.50
2023-04-13T03:08:31.728Z,5.40
2023-04-13T03:10:58.453Z,5.40
2023-04-13T03:13:25.203Z,5.40
2023-04-13T03:15:52.827Z,5.30
2023-04-13T03:18:19.925Z,5.30
2023-04-13T03:20:46.891Z,5.30
2023-04-13T03:23:14.055Z,5.30
2023-04-13T03:25:40.860Z,5.30
2023-04-13T03:28:08.026Z,5.30
2023-04-13T03:30:34.780Z,5.20
2023-04-13T03:33:02.405Z,5.20
2023-04-13T03:35:29.747Z,5.20
2023-04-13T03:37:57.025Z,5.20
2023-04-13T03:40:24.206Z,5.20
2023-04-13T03:42:51.025Z,5.30
2023-04-13T03:45:18.605Z,5.30
2023-04-13T03:47:45.978Z,5.30
2023-04-13T03:50:13.167Z,5.30
2023-04-13T03:52:40.340Z,5.30
2023-04-13T03:55:07.363Z,5.30
2023-04-13T03:57:34.987Z,5.20
2023-04-13T04:00:02.087Z,5.20
2023-04-13T04:02:29.462Z,5.20
2023-04-13T04:04:56.380Z,5.20
2023-04-13T04:07:23.189Z,5.20
2023-04-13T04:09:50.374Z,5.20
2023-04-13T04:12:17.532Z,5.20
2023-04-13T04:14:44.243Z,5.10
2023-04-13T04:17:11.020Z,5.10
2023-04-13T04:19:38.349Z,5.10
2023-04-13T04:22:07.251Z,5.10
2023-04-13T04:24:35.086Z,5.10
2023-04-13T04:27:02.640Z,5.10
2023-04-13T04:29:35.833Z,5.00
2023-04-13T04:32:11.291Z,5.00
2023-04-13T04:34:38.782Z,5.00
2023-04-13T04:37:19.720Z,4.90
2023-04-13T04:39:48.649Z,4.90
2023-04-13T04:42:19.010Z,5.00
2023-04-13T04:44:49.789Z,4.90
2023-04-13T04:47:17.821Z,4.90
2023-04-13T04:49:44.540Z,4.90
2023-04-13T04:52:12.888Z,4.90
2023-04-13T04:54:39.783Z,4.80
2023-04-13T04:57:10.990Z,4.80
2023-04-13T04:59:37.792Z,4.80
2023-04-13T05:02:04.661Z,4.80
2023-04-13T05:04:31.986Z,4.80
2023-04-13T05:06:58.717Z,4.70
2023-04-13T05:09:26.459Z,4.70
2023-04-13T05:11:53.632Z,4.70
2023-04-13T05:14:20.679Z,4.70
2023-04-13T05:16:47.349Z,4.70
2023-04-13T05:19:14.434Z,4.60
2023-04-13T05:21:41.199Z,4.70
2023-04-13T05:24:09.371Z,4.60
2023-04-13T05:26:36.134Z,4.60
2023-04-13T05:29:05.056Z,4.70
2023-04-13T05:31:31.728Z,4.70
2023-04-13T05:34:01.900Z,4.80
2023-04-13T05:36:32.709Z,4.80
2023-04-13T05:38:59.972Z,4.90
2023-04-13T05:41:28.059Z,5.00
2023-04-13T05:43:54.781Z,5.10
2023-04-13T05:46:22.052Z,5.20
2023-04-13T05:48:48.738Z,5.20
2023-04-13T05:51:18.732Z,5.20
2023-04-13T05:53:46.682Z,5.20
2023-04-13T05:56:14.064Z,5.30
2023-04-13T05:58:40.751Z,5.20
2023-04-13T06:01:13.795Z,5.20
2023-04-13T06:03:40.644Z,5.30
2023-04-13T06:06:10.108Z,5.30
2023-04-13T06:08:36.785Z,5.40
2023-04-13T06:11:03.553Z,5.50
2023-04-13T06:13:32.124Z,5.60
2023-04-13T06:16:00.214Z,5.60
2023-04-13T06:18:27.273Z,5.70
2023-04-13T06:20:54.791Z,5.70
2023-04-13T06:23:22.113Z,5.80
2023-04-13T06:25:50.093Z,5.70
2023-04-13T06:28:17.279Z,5.70
2023-04-13T06:30:44.092Z,5.70
2023-04-13T06:33:11.527Z,5.70
2023-04-13T06:35:38.660Z,5.80
2023-04-13T06:38:05.700Z,5.90
2023-04-13T06:40:33.254Z,6.00
2023-04-13T06:43:00.148Z,6.10
2023-04-13T06:45:26.809Z,6.00
2023-04-13T06:47:54.229Z,6.10
2023-04-13T06:50:21.676Z,6.10
2023-04-13T06:52:48.932Z,6.20
2023-04-13T06:55:17.648Z,6.10
2023-04-13T06:57:44.761Z,6.20
2023-04-13T07:00:28.294Z,6.30
2023-04-13T07:02:58.086Z,6.40
2023-04-13T07:05:24.959Z,6.50
2023-04-13T07:07:51.738Z,6.70
2023-04-13T07:10:18.469Z,6.70
2023-04-13T07:12:45.214Z,6.80
2023-04-13T07:15:12.026Z,6.70
2023-04-13T07:17:39.081Z,6.80
2023-04-13T07:20:07.684Z,6.70
2023-04-13T07:22:35.429Z,6.80
2023-04-13T07:25:04.499Z,6.90
2023-04-13T07:27:33.055Z,6.90
2023-04-13T07:30:00.368Z,7.00
2023-04-13T07:32:31.369Z,7.20
2023-04-13T07:35:01.409Z,7.30
2023-04-13T07:37:28.370Z,7.50
2023-04-13T07:39:55.160Z,8.00
2023-04-13T07:42:22.016Z,8.50
2023-04-13T07:44:48.764Z,9.10
2023-04-13T07:47:16.712Z,9.20
2023-04-13T07:49:43.667Z,9.30
2023-04-13T07:52:10.415Z,9.40
2023-04-13T07:54:37.482Z,10.00
2023-04-13T07:57:04.950Z,10.40
2023-04-13T07:59:31.681Z,10.70
2023-04-13T08:01:58.919Z,10.80
2023-04-13T08:04:26.392Z,10.60
2023-04-13T08:06:54.027Z,10.80
2023-04-13T08:09:21.191Z,10.70
2023-04-13T08:11:49.744Z,10.40
2023-04-13T08:14:16.737Z,10.30
2023-04-13T08:16:43.520Z,10.40
2023-04-13T08:19:10.331Z,10.20
2023-04-13T08:21:38.847Z,10.20
2023-04-13T08:24:06.381Z,10.40
2023-04-13T08:26:33.112Z,10.70
2023-04-13T08:29:00.403Z,10.80
2023-04-13T08:31:27.379Z,11.20
2023-04-13T08:33:55.928Z,11.20
2023-04-13T08:38:51.298Z,11.20
2023-04-13T08:41:18.864Z,11.10
2023-04-13T08:43:47.028Z,10.90
2023-04-13T08:46:21.499Z,10.50
2023-04-13T08:48:54.180Z,10.20
2023-04-13T08:51:22.526Z,9.90
2023-04-13T08:53:49.795Z,9.70
2023-04-13T08:56:17.754Z,9.70
2023-04-13T08:58:48.898Z,9.60
2023-04-13T09:01:17.275Z,9.40
2023-04-13T09:04:07.131Z,9.20
2023-04-13T09:06:37.699Z,9.00
2023-04-13T09:09:07.734Z,8.70
2023-04-13T09:11:34.457Z,8.60
2023-04-13T09:14:01.623Z,8.70
2023-04-13T09:16:28.490Z,9.00
2023-04-13T09:18:58.298Z,9.20
2023-04-13T09:21:40.902Z,9.40
2023-04-13T09:24:08.690Z,9.30
2023-04-13T09:26:48.187Z,9.20
2023-04-13T09:29:18.017Z,9.30
2023-04-13T09:31:48.225Z,9.40
2023-04-13T09:34:25.856Z,9.50
2023-04-13T09:36:54.025Z,9.30
2023-04-13T09:39:29.162Z,9.10
2023-04-13T09:41:56.879Z,9.00
2023-04-13T09:44:24.900Z,8.90
2023-04-13T09:47:02.879Z,8.80
2023-04-13T09:49:39.534Z,9.00
2023-04-13T09:52:08.291Z,9.50
2023-04-13T09:54:46.605Z,10.30
2023-04-13T09:57:24.584Z,10.60
2023-04-13T10:00:01.974Z,10.50
2023-04-13T10:02:29.052Z,10.10
2023-04-13T10:04:56.527Z,9.70
2023-04-13T10:07:26.857Z,9.50
2023-04-13T10:09:54.301Z,9.30
2023-04-13T10:12:22.293Z,9.00
2023-04-13T10:14:51.792Z,8.70
2023-04-13T10:18:01.483Z,8.50
2023-04-13T10:20:30.565Z,8.60
2023-04-13T10:22:58.608Z,8.70
2023-04-13T10:25:32.640Z,9.20
2023-04-13T10:28:00.740Z,10.20
2023-04-13T10:30:28.543Z,11.20
2023-04-13T10:33:06.575Z,11.30
2023-04-13T10:35:38.203Z,11.00
2023-04-13T10:38:05.912Z,10.90
2023-04-13T10:40:45.714Z,10.80
2023-04-13T10:43:12.620Z,11.00
2023-04-13T10:45:39.354Z,11.10
2023-04-13T10:48:07.843Z,11.40
2023-04-13T10:50:34.921Z,11.50
2023-04-13T10:53:06.031Z,11.70
2023-04-13T10:55:33.958Z,11.60
2023-04-13T10:58:02.783Z,11.50
2023-04-13T11:00:44.909Z,11.40
2023-04-13T11:03:15.481Z,11.30
2023-04-13T11:05:43.196Z,11.20
2023-04-13T11:08:10.137Z,11.40
2023-04-13T11:10:36.905Z,11.80
2023-04-13T11:13:03.649Z,12.10
2023-04-13T11:15:32.402Z,12.20
2023-04-13T11:18:01.024Z,12.70
2023-04-13T11:20:38.838Z,13.00
2023-04-13T11:23:16.268Z,13.00
2023-04-13T11:26:04.659Z,12.70
2023-04-13T11:28:42.484Z,11.90
2023-04-13T11:31:11.225Z,11.50
2023-04-13T11:33:40.240Z,11.20
2023-04-13T11:36:07.991Z,11.00
2023-04-13T11:38:34.798Z,10.80
2023-04-13T11:41:15.137Z,10.70
2023-04-13T11:43:46.214Z,10.70
2023-04-13T11:46:15.874Z,10.60
2023-04-13T11:48:43.547Z,11.00
2023-04-13T11:51:31.383Z,11.50
2023-04-13T11:53:58.734Z,12.10
2023-04-13T11:56:25.968Z,12.60
2023-04-13T11:58:53.523Z,12.80
2023-04-13T12:01:26.676Z,12.80
2023-04-13T12:04:14.616Z,12.40
2023-04-13T12:10:39.658Z,11.10
2023-04-13T12:16:05.340Z,10.20
2023-04-13T12:18:43.685Z,10.10
2023-04-13T12:21:20.402Z,10.00
2023-04-13T12:23:54.403Z,10.00
2023-04-13T12:28:57.574Z,10.00
2023-04-13T12:31:25.232Z,9.90
2023-04-13T12:33:51.923Z,10.10
2023-04-13T12:36:18.855Z,10.30
2023-04-13T12:38:46.166Z,10.50
2023-04-13T12:41:12.914Z,10.40
2023-04-13T12:43:39.866Z,10.40
2023-04-13T12:46:06.709Z,10.40
2023-04-13T12:48:33.475Z,10.50
2023-04-13T12:51:00.328Z,10.40
2023-04-13T12:53:27.402Z,10.40
2023-04-13T12:55:54.170Z,10.60
2023-04-13T12:58:21.096Z,11.00
2023-04-13T13:00:47.828Z,11.60
2023-04-13T13:03:15.260Z,12.70
2023-04-13T13:05:42.855Z,13.80
2023-04-13T13:08:10.099Z,14.50
2023-04-13T13:10:37.699Z,14.70
2023-04-13T13:13:06.184Z,14.80
2023-04-13T13:15:33.553Z,14.70
2023-04-13T13:18:04.449Z,14.60
2023-04-13T13:20:31.587Z,14.30
2023-04-13T13:22:58.373Z,14.20
2023-04-13T13:25:25.195Z,14.00
2023-04-13T13:30:26.259Z,13.30
2023-04-13T13:32:53.230Z,13.00
2023-04-13T13:35:19.958Z,12.90
2023-04-13T13:37:46.912Z,12.70
2023-04-13T13:40:14.061Z,12.60
2023-04-13T13:42:51.215Z,12.80
2023-04-13T13:45:20.411Z,12.80
2023-04-13T13:47:53.160Z,12.90
2023-04-13T13:50:23.897Z,12.70
2023-04-13T13:53:03.278Z,12.40
2023-04-13T13:55:31.785Z,11.90
2023-04-13T13:57:59.161Z,11.40
2023-04-13T14:00:26.132Z,11.30
2023-04-13T14:02:53.224Z,11.40
2023-04-13T14:05:22.493Z,11.20
2023-04-13T14:07:52.360Z,11.20
2023-04-13T14:10:19.125Z,11.30
2023-04-13T14:12:50.246Z,11.40
2023-04-13T14:15:18.083Z,11.60
2023-04-13T14:17:50.412Z,11.40
2023-04-13T14:20:22.509Z,11.20
2023-04-13T14:22:49.367Z,11.20
2023-04-13T14:25:16.077Z,11.30
2023-04-13T14:27:43.860Z,11.20
2023-04-13T14:30:11.075Z,11.00
2023-04-13T14:32:37.819Z,10.90
2023-04-13T14:35:05.083Z,10.70
2023-04-13T14:37:32.091Z,10.60
2023-04-13T14:39:59.372Z,10.70
2023-04-13T14:42:29.658Z,10.80
2023-04-13T14:44:56.749Z,10.90
2023-04-13T14:47:43.613Z,10.80
2023-04-13T14:50:11.605Z,10.70
2023-04-13T14:52:38.583Z,10.50
2023-04-13T14:55:05.809Z,10.30
2023-04-13T14:57:33.295Z,10.10
2023-04-13T15:00:00.148Z,10.10
2023-04-13T15:02:28.577Z,10.00
2023-04-13T15:04:56.139Z,10.00
2023-04-13T15:07:29.954Z,9.90
2023-04-13T15:09:59.077Z,9.80
2023-04-13T15:12:25.941Z,9.80
2023-04-13T15:14:52.831Z,9.80
2023-04-13T15:17:21.012Z,9.80
2023-04-13T15:19:47.785Z,9.70
2023-04-13T15:22:14.776Z,9.70
2023-04-13T15:24:41.682Z,9.60
2023-04-13T15:27:08.457Z,9.70
2023-04-13T15:29:35.277Z,9.70
2023-04-13T15:32:02.088Z,9.70
2023-04-13T15:34:28.868Z,9.80
2023-04-13T15:36:57.229Z,9.90
2023-04-13T15:39:23.871Z,9.90
2023-04-13T15:41:52.662Z,10.00
2023-04-13T15:44:19.483Z,10.00
2023-04-13T15:46:48.048Z,10.20
2023-04-13T15:49:15.144Z,10.20
2023-04-13T15:51:41.861Z,10.30
2023-04-13T15:54:08.620Z,10.50
2023-04-13T15:56:35.764Z,10.60
2023-04-13T15:59:02.747Z,10.70
2023-04-13T16:01:44.288Z,10.70
2023-04-13T16:04:11.800Z,10.70
2023-04-13T16:06:38.906Z,10.60
2023-04-13T16:09:05.791Z,10.50
2023-04-13T16:11:32.530Z,10.40
2023-04-13T16:14:07.158Z,10.40
2023-04-13T16:16:44.242Z,10.20
2023-04-13T16:19:12.518Z,10.20
2023-04-13T16:21:43.493Z,10.30
2023-04-13T16:24:10.690Z,10.30
2023-04-13T16:26:37.999Z,10.20
2023-04-13T16:29:05.756Z,10.20
2023-04-13T16:31:32.591Z,10.10
2023-04-13T16:33:59.462Z,10.20
2023-04-13T16:36:27.553Z,10.20
2023-04-13T16:38:54.334Z,10.30
2023-04-13T16:41:21.091Z,10.20
2023-04-13T16:43:47.860Z,10.10
2023-04-13T16:46:14.928Z,9.90
2023-04-13T16:48:41.948Z,9.70
2023-04-13T16:51:08.633Z,9.60
2023-04-13T16:53:35.442Z,9.40
2023-04-13T16:56:02.437Z,9.20
2023-04-13T16:58:29.187Z,9.00
2023-04-13T17:00:56.069Z,8.90
2023-04-13T17:03:23.034Z,8.80
2023-04-13T17:05:49.778Z,8.70
2023-04-13T17:08:17.519Z,8.60
2023-04-13T17:10:44.789Z,8.60
2023-04-13T17:13:11.592Z,8.50
2023-04-13T17:15:38.871Z,8.50
2023-04-13T17:18:06.179Z,8.40
2023-04-13T17:20:32.933Z,8.30
2023-04-13T17:22:59.562Z,8.30
2023-04-13T17:25:27.339Z,8.20
2023-04-13T17:27:54.049Z,8.20
2023-04-13T17:30:21.281Z,8.10
2023-04-13T17:32:48.043Z,7.90
2023-04-13T17:35:16.193Z,7.80
2023-04-13T17:37:43.153Z,7.70
2023-04-13T17:40:10.249Z,7.60
2023-04-13T17:42:37.020Z,7.50
2023-04-13T17:45:04.152Z,7.50
2023-04-13T17:47:31.168Z,7.40
2023-04-13T17:49:58.502Z,7.30
2023-04-13T17:52:25.504Z,7.30
2023-04-13T17:54:52.674Z,7.20
2023-04-13T17:57:19.377Z,7.10
2023-04-13T17:59:47.417Z,7.10
2023-04-13T18:02:14.411Z,7.00
2023-04-13T18:04:41.431Z,7.00
2023-04-13T18:07:08.169Z,7.00
2023-04-13T18:09:35.293Z,6.90
2023-04-13T18:12:02.171Z,6.80
2023-04-13T18:14:28.921Z,6.70
2023-04-13T18:16:56.285Z,6.60
2023-04-13T18:19:57.553Z,6.50
2023-04-13T18:22:24.319Z,6.40
2023-04-13T18:24:51.062Z,6.40
2023-04-13T18:27:17.971Z,6.30
2023-04-13T18:29:45.017Z,6.20
2023-04-13T18:32:11.668Z,6.10
2023-04-13T18:34:40.302Z,6.00
2023-04-13T18:37:07.086Z,5.90
2023-04-13T18:39:34.038Z,5.80
2023-04-13T18:42:01.037Z,5.70
2023-04-13T18:44:27.669Z,5.70
2023-04-13T18:46:54.468Z,5.60
2023-04-13T18:49:21.259Z,5.50
2023-04-13T18:52:01.383Z,5.40
2023-04-13T18:54:29.627Z,5.30
2023-04-13T18:56:56.295Z,5.30
2023-04-13T18:59:23.077Z,5.20
2023-04-13T19:01:49.940Z,5.10
2023-04-13T19:04:17.009Z,5.00
2023-04-13T19:06:43.790Z,5.00
2023-04-13T19:09:10.759Z,4.90
2023-04-13T19:12:07.012Z,4.80
2023-04-13T19:14:34.207Z,4.80
2023-04-13T19:17:00.980Z,4.80
2023-04-13T19:19:27.665Z,4.70
2023-04-13T19:21:55.992Z,4.70
2023-04-13T19:24:23.455Z,4.60
2023-04-13T19:26:50.264Z,4.50
2023-04-13T19:29:17.766Z,4.50
2023-04-13T19:31:45.652Z,4.40
2023-04-13T19:34:12.961Z,4.40
2023-04-13T19:36:41.302Z,4.40
2023-04-13T19:39:08.966Z,4.30
2023-04-13T19:41:38.392Z,4.30
2023-04-13T19:44:05.910Z,4.30
2023-04-13T19:46:32.775Z,4.30
2023-04-13T19:49:03.038Z,4.30
2023-04-13T19:51:32.193Z,4.30
2023-04-13T19:54:01.312Z,4.30
2023-04-13T19:56:30.496Z,4.30
2023-04-13T19:59:02.582Z,4.30
2023-04-13T20:01:31.089Z,4.30
2023-04-13T20:03:58.111Z,4.30
2023-04-13T20:06:27.205Z,4.30
2023-04-13T20:08:54.160Z,4.30
2023-04-13T20:11:21.081Z,4.30
2023-04-13T20:13:47.742Z,4.30
2023-04-13T20:16:14.833Z,4.30
2023-04-13T20:18:42.104Z,4.20
2023-04-13T20:21:10.722Z,4.20
2023-04-13T20:23:37.921Z,4.10
2023-04-13T20:26:05.430Z,4.00
2023-04-13T20:28:33.540Z,4.00
2023-04-13T20:31:00.351Z,3.90
2023-04-13T20:33:27.276Z,3.90
2023-04-13T20:35:55.540Z,3.90
2023-04-13T20:38:22.297Z,3.90
2023-04-13T20:40:48.991Z,3.80
2023-04-13T20:43:16.283Z,3.80
2023-04-13T20:45:45.438Z,3.80
2023-04-13T20:50:47.867Z,3.80
2023-04-13T20:53:16.849Z,3.70
2023-04-13T20:55:43.839Z,3.70
2023-04-13T20:58:10.923Z,3.70
2023-04-13T21:00:38.484Z,3.70
2023-04-13T21:03:09.291Z,3.80
2023-04-13T21:05:36.359Z,3.80
2023-04-13T21:08:03.474Z,3.80
2023-04-13T21:10:30.397Z,3.80
2023-04-13T21:12:57.125Z,3.80
2023-04-13T21:15:24.169Z,3.80
2023-04-13T21:17:50.883Z,3.80
2023-04-13T21:20:17.946Z,3.80
2023-04-13T21:22:44.945Z,3.70
2023-04-13T21:25:11.688Z,3.80
2023-04-13T21:27:38.683Z,3.70
2023-04-13T21:30:06.184Z,3.70
2023-04-13T21:32:32.857Z,3.60
2023-04-13T21:35:00.420Z,3.60
2023-04-13T21:37:29.280Z,3.70
2023-04-13T21:39:57.651Z,3.60
2023-04-13T21:42:24.598Z,3.70
2023-04-13T21:44:51.645Z,3.70
2023-04-13T21:47:18.661Z,3.80
2023-04-13T21:49:45.325Z,3.80
2023-04-13T21:52:12.302Z,3.80
2023-04-13T21:54:39.029Z,3.90
2023-04-13T21:57:05.814Z,3.90
2023-04-13T21:59:32.777Z,3.90
2023-04-13T22:01:59.611Z,3.90
2023-04-13T22:04:26.766Z,3.90
2023-04-13T22:06:53.572Z,3.90
2023-04-13T22:09:20.331Z,3.90
2023-04-13T22:11:47.278Z,3.90
2023-04-13T22:14:14.039Z,3.90
2023-04-13T22:16:41.009Z,3.90
2023-04-13T22:19:08.014Z,3.90
2023-04-13T22:21:36.087Z,3.90
2023-04-13T22:24:03.390Z,3.90
2023-04-13T22:26:30.574Z,3.90
2023-04-13T22:28:57.445Z,3.90
2023-04-13T22:31:24.593Z,3.90
2023-04-13T22:33:51.378Z,3.90
2023-04-13T22:36:19.981Z,3.90
2023-04-13T22:38:47.791Z,3.90
2023-04-13T22:41:14.690Z,3.90
2023-04-13T22:43:41.721Z,3.90
2023-04-13T22:46:08.512Z,3.90
2023-04-13T22:48:35.513Z,3.90
2023-04-13T22:51:03.570Z,3.80
2023-04-13T22:53:31.362Z,3.80
2023-04-13T22:55:59.233Z,3.80
2023-04-13T22:58:26.379Z,3.80
2023-04-13T23:00:53.356Z,3.80
2023-04-13T23:03:20.510Z,3.80
2023-04-13T23:05:47.399Z,3.80
2023-04-13T23:08:14.132Z,3.80
2023-04-13T23:10:40.866Z,3.80
2023-04-13T23:13:07.679Z,3.80
2023-04-13T23:15:34.396Z,3.80
2023-04-13T23:18:02.907Z,3.80
2023-04-13T23:20:29.796Z,3.80
2023-04-13T23:22:56.744Z,3.80
2023-04-13T23:25:23.538Z,3.80
2023-04-13T23:27:50.579Z,3.80
2023-04-13T23:30:17.339Z,3.80
2023-04-13T23:32:44.265Z,3.80
2023-04-13T23:35:11.270Z,3.80
2023-04-13T23:37:37.987Z,3.80
2023-04-13T23:40:05.634Z,3.80
2023-04-13T23:42:32.330Z,3.80
2023-04-13T23:44:59.058Z,3.80
2023-04-13T23:47:25.922Z,3.80
2023-04-13T23:49:54.092Z,3.80
2023-04-13T23:52:20.809Z,3.80
2023-04-13T23:54:47.775Z,3.80
2023-04-13T23:57:14.445Z,3.80
2023-04-13T23:59:41.280Z,3.80
